Time;durP1;ratioP1;P1;durP2;ratioP2;P2;SDS_P1;SDS_P2;PMS_P1;PMS_P2;Temp;Humidity;BMP_temperature;BMP_pressure;BME280_temperature;BME280_humidity;BME280_pressure;Samples;Min_cycle;Max_cycle;Signal;HPM_P1;HPM_P2
2022/12/01 00:00:58;;;;;;;107.30;50.38;;;;;;;;;;5046466;28;20463;-77
2022/12/01 00:03:25;;;;;;;108.82;48.58;;;;;;;;;;5062868;28;20040;-78
2022/12/01 00:06:01;;;;;;;105.38;49.65;;;;;;;;;;5045194;28;20159;-77
2022/12/01 00:08:27;;;;;;;109.15;50.65;;;;;;;;;;5064563;28;20555;-78
2022/12/01 00:10:54;;;;;;;112.35;51.17;;;;;;;;;;5063794;28;22057;-77
2022/12/01 00:13:21;;;;;;;103.45;49.08;;;;;;;;;;5041152;28;20062;-77
2022/12/01 00:15:47;;;;;;;110.43;49.58;;;;;;;;;;5048600;28;20101;-78
2022/12/01 00:18:13;;;;;;;108.03;48.45;;;;;;;;;;5029853;28;20060;-77
2022/12/01 00:20:39;;;;;;;104.95;49.75;;;;;;;;;;5048380;28;20566;-77
2022/12/01 00:23:05;;;;;;;108.03;50.85;;;;;;;;;;5034146;28;20041;-77
2022/12/01 00:25:31;;;;;;;110.55;50.13;;;;;;;;;;5034175;28;20048;-78
2022/12/01 00:27:57;;;;;;;106.35;51.63;;;;;;;;;;5068410;28;22094;-76
2022/12/01 00:30:23;;;;;;;110.65;49.15;;;;;;;;;;5067167;28;20134;-77
2022/12/01 00:32:50;;;;;;;106.43;48.50;;;;;;;;;;5051612;28;20063;-78
2022/12/01 00:35:16;;;;;;;112.63;49.97;;;;;;;;;;5069107;28;20048;-78
2022/12/01 00:37:42;;;;;;;108.60;50.72;;;;;;;;;;5049411;28;20062;-78
2022/12/01 00:40:09;;;;;;;118.25;52.47;;;;;;;;;;5068034;28;20140;-78
2022/12/01 00:42:35;;;;;;;118.78;51.70;;;;;;;;;;5050257;28;20051;-78
2022/12/01 00:45:01;;;;;;;113.35;51.10;;;;;;;;;;5068113;28;20733;-78
2022/12/01 00:47:28;;;;;;;111.40;50.00;;;;;;;;;;5050002;28;20134;-78
2022/12/01 00:49:54;;;;;;;116.82;52.78;;;;;;;;;;5048277;28;20060;-78
2022/12/01 00:52:20;;;;;;;117.60;52.70;;;;;;;;;;5048524;28;20127;-77
2022/12/01 00:54:46;;;;;;;115.63;51.85;;;;;;;;;;5049165;28;20051;-78
2022/12/01 00:57:12;;;;;;;111.13;51.30;;;;;;;;;;5049559;28;20059;-77
2022/12/01 00:59:38;;;;;;;118.93;53.65;;;;;;;;;;5067135;28;20114;-78
2022/12/01 01:02:05;;;;;;;118.88;51.92;;;;;;;;;;5064068;28;20036;-79
2022/12/01 01:04:32;;;;;;;113.70;49.88;;;;;;;;;;5068333;28;20059;-78
2022/12/01 01:06:58;;;;;;;125.07;54.40;;;;;;;;;;5049216;28;20040;-78
2022/12/01 01:09:24;;;;;;;118.15;51.50;;;;;;;;;;5066692;28;20094;-78
2022/12/01 01:11:51;;;;;;;119.68;53.17;;;;;;;;;;5050031;28;20047;-77
2022/12/01 01:14:17;;;;;;;116.03;50.05;;;;;;;;;;5036425;28;20063;-78
2022/12/01 01:16:43;;;;;;;123.43;52.25;;;;;;;;;;5047176;28;20087;-78
2022/12/01 01:19:09;;;;;;;117.70;51.60;;;;;;;;;;5065146;28;20074;-77
2022/12/01 01:21:35;;;;;;;112.20;52.95;;;;;;;;;;5031603;28;20044;-77
2022/12/01 01:24:01;;;;;;;123.78;54.75;;;;;;;;;;5048108;28;20055;-78
2022/12/01 01:26:29;;;;;;;125.15;53.95;;;;;;;;;;5056866;28;20627;-77
2022/12/01 01:28:56;;;;;;;124.90;53.17;;;;;;;;;;5048645;28;20055;-78
2022/12/01 01:31:23;;;;;;;125.72;53.90;;;;;;;;;;5048421;28;20045;-78
2022/12/01 01:33:49;;;;;;;127.90;55.15;;;;;;;;;;5044565;28;20084;-78
2022/12/01 01:36:16;;;;;;;128.57;55.95;;;;;;;;;;5046177;28;20495;-78
2022/12/01 01:38:45;;;;;;;135.13;55.63;;;;;;;;;;5068173;28;20044;-78
2022/12/01 01:41:11;;;;;;;130.95;54.80;;;;;;;;;;5067327;28;20054;-78
2022/12/01 01:43:37;;;;;;;125.30;52.88;;;;;;;;;;5064737;28;20048;-78
2022/12/01 01:46:07;;;;;;;125.43;54.40;;;;;;;;;;5042351;28;20113;-78
2022/12/01 01:48:35;;;;;;;130.77;55.65;;;;;;;;;;5067181;28;20055;-78
2022/12/01 01:51:01;;;;;;;125.75;52.75;;;;;;;;;;5060179;28;20055;-78
2022/12/01 01:53:27;;;;;;;131.15;54.55;;;;;;;;;;5061845;28;20082;-78
2022/12/01 01:55:54;;;;;;;122.80;54.38;;;;;;;;;;5068676;28;20075;-77
2022/12/01 01:58:20;;;;;;;129.93;53.83;;;;;;;;;;5034185;28;20496;-78
2022/12/01 02:00:46;;;;;;;124.47;54.00;;;;;;;;;;5045748;28;20046;-78
2022/12/01 02:03:14;;;;;;;128.27;53.35;;;;;;;;;;5067678;28;20070;-78
2022/12/01 02:05:43;;;;;;;121.45;54.78;;;;;;;;;;5067543;28;20106;-78
2022/12/01 02:08:13;;;;;;;128.02;54.05;;;;;;;;;;5087662;28;20048;-77
2022/12/01 02:10:48;;;;;;;132.68;55.10;;;;;;;;;;5084989;28;20048;-77
2022/12/01 02:13:14;;;;;;;123.35;53.17;;;;;;;;;;5044693;28;20086;-78
2022/12/01 02:15:45;;;;;;;117.90;52.38;;;;;;;;;;5048180;28;20062;-77
2022/12/01 02:18:14;;;;;;;131.80;53.28;;;;;;;;;;5030263;28;20044;-78
2022/12/01 02:20:59;;;;;;;126.55;52.85;;;;;;;;;;5047986;28;20048;-78
2022/12/01 02:23:52;;;;;;;117.25;50.65;;;;;;;;;;5046670;28;20052;-78
2022/12/01 02:26:30;;;;;;;125.22;51.80;;;;;;;;;;5029661;28;20606;-77
2022/12/01 02:29:11;;;;;;;120.80;52.72;;;;;;;;;;5049970;28;20052;-78
2022/12/01 02:32:04;;;;;;;123.43;52.78;;;;;;;;;;5048077;28;20043;-77
2022/12/01 02:34:34;;;;;;;122.10;50.70;;;;;;;;;;5013227;28;20055;-78
2022/12/01 02:37:08;;;;;;;110.57;49.50;;;;;;;;;;5043709;28;20091;-78
2022/12/01 02:39:37;;;;;;;125.23;52.60;;;;;;;;;;5062041;28;20489;-77
2022/12/01 02:42:06;;;;;;;125.00;52.60;;;;;;;;;;5023774;28;20299;-77
2022/12/01 02:44:35;;;;;;;115.82;50.53;;;;;;;;;;5043575;28;20587;-77
2022/12/01 02:47:01;;;;;;;117.13;49.38;;;;;;;;;;5061743;28;20071;-78
2022/12/01 02:49:30;;;;;;;120.15;51.67;;;;;;;;;;5045185;28;20767;-77
2022/12/01 02:51:58;;;;;;;122.65;52.53;;;;;;;;;;5045269;28;20055;-77
2022/12/01 02:54:25;;;;;;;121.82;52.67;;;;;;;;;;5062921;28;20040;-77
2022/12/01 02:56:52;;;;;;;112.40;49.80;;;;;;;;;;5062479;28;20055;-77
2022/12/01 02:59:18;;;;;;;112.60;50.20;;;;;;;;;;5033731;28;20131;-77
2022/12/01 03:01:49;;;;;;;115.68;50.15;;;;;;;;;;5038555;28;20255;-78
2022/12/01 03:04:34;;;;;;;119.97;51.30;;;;;;;;;;5034804;28;20815;-78
2022/12/01 03:07:03;;;;;;;111.75;50.05;;;;;;;;;;5023044;28;21972;-77
2022/12/01 03:09:48;;;;;;;119.32;51.58;;;;;;;;;;5040009;28;20048;-78
2022/12/01 03:12:17;;;;;;;115.65;48.58;;;;;;;;;;5042125;28;20040;-77
2022/12/01 03:14:59;;;;;;;107.60;47.47;;;;;;;;;;5039922;28;20052;-78
2022/12/01 03:17:28;;;;;;;110.35;46.38;;;;;;;;;;5041260;28;20637;-78
2022/12/01 03:20:15;;;;;;;98.28;44.17;;;;;;;;;;5043172;28;20043;-78
2022/12/01 03:22:42;;;;;;;108.20;46.35;;;;;;;;;;5044437;28;20161;-78
2022/12/01 03:25:10;;;;;;;104.47;46.75;;;;;;;;;;5052333;28;20040;-78
2022/12/01 03:27:40;;;;;;;101.28;43.63;;;;;;;;;;5061861;28;20063;-78
2022/12/01 03:30:09;;;;;;;89.57;41.83;;;;;;;;;;5044863;28;20047;-77
2022/12/01 03:32:46;;;;;;;87.47;41.97;;;;;;;;;;5043121;28;20489;-78
2022/12/01 03:35:21;;;;;;;87.43;40.53;;;;;;;;;;5043258;28;20071;-79
2022/12/01 03:37:54;;;;;;;86.10;39.97;;;;;;;;;;5060010;28;20044;-78
2022/12/01 03:40:23;;;;;;;94.10;41.15;;;;;;;;;;5060613;28;20044;-77
2022/12/01 03:42:54;;;;;;;92.18;40.72;;;;;;;;;;5028462;28;20145;-78
2022/12/01 03:45:26;;;;;;;91.25;40.20;;;;;;;;;;5054765;28;20144;-78
2022/12/01 03:47:52;;;;;;;87.60;40.83;;;;;;;;;;5033158;28;20138;-78
2022/12/01 03:50:18;;;;;;;91.00;41.30;;;;;;;;;;5044354;28;20063;-78
2022/12/01 03:53:03;;;;;;;90.88;41.55;;;;;;;;;;5030908;28;20052;-77
2022/12/01 03:55:31;;;;;;;86.43;39.90;;;;;;;;;;5044741;28;20914;-77
2022/12/01 03:58:16;;;;;;;89.00;40.92;;;;;;;;;;5044825;28;20051;-77
2022/12/01 04:00:42;;;;;;;90.65;41.30;;;;;;;;;;5049795;28;20131;-78
2022/12/01 04:03:16;;;;;;;87.22;41.33;;;;;;;;;;5031472;28;20052;-78
2022/12/01 04:05:42;;;;;;;90.60;41.15;;;;;;;;;;5045574;28;20098;-77
2022/12/01 04:08:08;;;;;;;90.75;41.40;;;;;;;;;;5063029;28;20052;-78
2022/12/01 04:10:34;;;;;;;85.50;41.55;;;;;;;;;;5063269;28;20199;-78
2022/12/01 04:13:00;;;;;;;87.13;41.13;;;;;;;;;;5053491;28;20055;-78
2022/12/01 04:15:27;;;;;;;87.30;40.50;;;;;;;;;;5029535;28;20079;-77
2022/12/01 04:17:53;;;;;;;80.03;39.78;;;;;;;;;;5064087;28;20048;-78
2022/12/01 04:20:19;;;;;;;82.60;39.60;;;;;;;;;;5062416;28;20178;-77
2022/12/01 04:22:46;;;;;;;80.28;40.35;;;;;;;;;;5043855;28;20047;-77
2022/12/01 04:25:12;;;;;;;86.80;41.38;;;;;;;;;;5060235;28;20056;-78
2022/12/01 04:27:38;;;;;;;87.68;40.45;;;;;;;;;;5040165;28;20055;-78
2022/12/01 04:30:05;;;;;;;92.57;42.05;;;;;;;;;;5048183;28;20078;-79
2022/12/01 04:32:32;;;;;;;89.75;40.65;;;;;;;;;;5044877;28;20076;-78
2022/12/01 04:34:58;;;;;;;94.80;40.72;;;;;;;;;;5026829;28;20079;-78
2022/12/01 04:37:24;;;;;;;87.60;40.65;;;;;;;;;;5045830;28;20178;-78
2022/12/01 04:39:50;;;;;;;88.13;41.25;;;;;;;;;;5046100;28;20063;-78
2022/12/01 04:42:16;;;;;;;90.50;41.15;;;;;;;;;;5042498;28;22803;-78
2022/12/01 04:44:42;;;;;;;92.40;41.47;;;;;;;;;;5034777;28;20080;-78
2022/12/01 04:47:08;;;;;;;86.18;40.70;;;;;;;;;;5045156;28;20082;-78
2022/12/01 04:49:36;;;;;;;90.47;40.78;;;;;;;;;;5042975;28;20044;-78
2022/12/01 04:52:02;;;;;;;85.70;39.50;;;;;;;;;;5045153;28;20538;-78
2022/12/01 04:54:28;;;;;;;83.88;39.72;;;;;;;;;;5023831;28;20040;-78
2022/12/01 04:56:54;;;;;;;86.32;39.60;;;;;;;;;;5043479;28;20048;-78
2022/12/01 04:59:20;;;;;;;88.43;39.70;;;;;;;;;;5047516;28;20087;-78
2022/12/01 05:01:46;;;;;;;82.10;38.75;;;;;;;;;;5024613;28;20159;-78
2022/12/01 05:04:13;;;;;;;72.80;36.25;;;;;;;;;;5025529;28;20616;-77
2022/12/01 05:06:39;;;;;;;72.15;36.17;;;;;;;;;;5022890;28;20048;-78
2022/12/01 05:09:06;;;;;;;80.28;37.53;;;;;;;;;;5023965;28;20147;-78
2022/12/01 05:11:32;;;;;;;74.05;35.45;;;;;;;;;;5044256;28;20074;-78
2022/12/01 05:13:58;;;;;;;77.00;37.33;;;;;;;;;;5043505;28;20056;-78
2022/12/01 05:16:30;;;;;;;80.43;36.83;;;;;;;;;;5009696;28;20076;-78
2022/12/01 05:21:43;;;;;;;68.75;34.35;;;;;;;;;;5026366;28;20044;-78
2022/12/01 05:24:09;;;;;;;74.43;36.08;;;;;;;;;;5024837;28;20716;-78
2022/12/01 05:26:36;;;;;;;75.07;35.47;;;;;;;;;;5025322;28;20196;-77
2022/12/01 05:29:02;;;;;;;67.70;34.38;;;;;;;;;;5011642;28;20048;-77
2022/12/01 05:31:28;;;;;;;73.88;34.28;;;;;;;;;;5024884;28;20562;-78
2022/12/01 05:33:54;;;;;;;65.70;33.00;;;;;;;;;;5024640;28;20194;-78
2022/12/01 05:36:20;;;;;;;69.82;34.03;;;;;;;;;;5040787;28;20044;-77
2022/12/01 05:38:46;;;;;;;63.65;31.42;;;;;;;;;;5021112;28;20047;-76
2022/12/01 05:41:12;;;;;;;59.03;31.38;;;;;;;;;;5026754;28;20067;-76
2022/12/01 05:43:38;;;;;;;67.35;31.30;;;;;;;;;;5033296;28;20371;-76
2022/12/01 05:46:05;;;;;;;60.03;30.58;;;;;;;;;;5063928;28;20048;-78
2022/12/01 05:48:31;;;;;;;61.22;32.53;;;;;;;;;;5065053;28;20170;-77
2022/12/01 05:50:57;;;;;;;62.40;31.92;;;;;;;;;;5064499;28;20088;-77
2022/12/01 05:53:23;;;;;;;58.63;32.33;;;;;;;;;;5047004;28;20040;-77
2022/12/01 05:55:53;;;;;;;59.53;31.13;;;;;;;;;;5053584;28;20040;-77
2022/12/01 05:58:20;;;;;;;63.03;30.52;;;;;;;;;;5035207;28;20111;-77
2022/12/01 06:00:46;;;;;;;57.55;30.05;;;;;;;;;;5050213;28;20044;-77
2022/12/01 06:03:12;;;;;;;62.20;30.45;;;;;;;;;;5050171;28;20980;-78
2022/12/01 06:05:38;;;;;;;64.55;31.42;;;;;;;;;;5070717;28;20069;-77
2022/12/01 06:08:04;;;;;;;59.58;29.55;;;;;;;;;;5034997;28;20527;-77
2022/12/01 06:10:30;;;;;;;53.80;27.85;;;;;;;;;;5051284;28;20052;-78
2022/12/01 06:12:56;;;;;;;52.38;29.65;;;;;;;;;;5070764;28;20120;-77
2022/12/01 06:15:23;;;;;;;54.67;28.73;;;;;;;;;;5051986;28;20052;-77
2022/12/01 06:17:49;;;;;;;54.08;28.25;;;;;;;;;;5068847;28;20179;-77
2022/12/01 06:20:15;;;;;;;54.65;28.55;;;;;;;;;;5035915;28;20048;-77
2022/12/01 06:22:41;;;;;;;45.35;27.08;;;;;;;;;;5052936;28;20059;-78
2022/12/01 06:25:08;;;;;;;52.50;27.95;;;;;;;;;;5069803;28;20149;-77
2022/12/01 06:27:34;;;;;;;44.72;25.67;;;;;;;;;;5053923;28;20105;-78
2022/12/01 06:30:00;;;;;;;48.35;27.75;;;;;;;;;;5041096;28;20044;-78
2022/12/01 06:32:26;;;;;;;49.67;26.42;;;;;;;;;;5050306;28;20056;-78
2022/12/01 06:34:52;;;;;;;44.97;24.70;;;;;;;;;;5071967;28;20472;-78
2022/12/01 06:37:18;;;;;;;48.08;26.25;;;;;;;;;;5067352;28;22012;-78
2022/12/01 06:39:44;;;;;;;49.97;25.20;;;;;;;;;;5059905;28;20106;-77
2022/12/01 06:42:11;;;;;;;39.50;24.63;;;;;;;;;;5052026;28;20067;-78
2022/12/01 06:44:37;;;;;;;44.35;25.77;;;;;;;;;;5068378;28;20075;-78
2022/12/01 06:47:04;;;;;;;46.53;25.80;;;;;;;;;;5085219;28;20512;-78
2022/12/01 06:49:30;;;;;;;48.30;26.63;;;;;;;;;;5069791;28;20753;-79
2022/12/01 06:51:56;;;;;;;46.33;25.58;;;;;;;;;;5073403;28;20151;-77
2022/12/01 06:54:22;;;;;;;46.65;26.23;;;;;;;;;;5069410;28;20036;-78
2022/12/01 06:56:48;;;;;;;46.75;25.70;;;;;;;;;;5075035;28;20056;-78
2022/12/01 06:59:14;;;;;;;44.67;25.52;;;;;;;;;;5070207;28;20432;-78
2022/12/01 07:01:40;;;;;;;45.95;26.00;;;;;;;;;;5071845;28;20131;-78
2022/12/01 07:04:06;;;;;;;65.10;35.95;;;;;;;;;;5079440;28;20115;-77
2022/12/01 07:06:32;;;;;;;48.70;26.27;;;;;;;;;;5068666;28;20051;-77
2022/12/01 07:08:58;;;;;;;52.08;28.42;;;;;;;;;;5062418;28;20058;-77
2022/12/01 07:11:24;;;;;;;47.33;26.08;;;;;;;;;;5054343;28;20079;-78
2022/12/01 07:13:54;;;;;;;48.92;25.50;;;;;;;;;;5063223;28;20040;-77
2022/12/01 07:16:21;;;;;;;47.70;26.08;;;;;;;;;;5053102;28;20137;-77
2022/12/01 07:18:47;;;;;;;43.55;25.15;;;;;;;;;;5052947;28;20048;-77
2022/12/01 07:21:14;;;;;;;47.47;26.33;;;;;;;;;;5055025;28;20147;-77
2022/12/01 07:23:40;;;;;;;48.67;26.63;;;;;;;;;;5055903;28;20072;-77
2022/12/01 07:26:09;;;;;;;51.67;28.00;;;;;;;;;;5072161;28;20071;-77
2022/12/01 07:28:35;;;;;;;51.00;27.02;;;;;;;;;;5073859;28;20484;-78
2022/12/01 07:31:05;;;;;;;46.95;26.40;;;;;;;;;;5045354;28;20748;-77
2022/12/01 07:33:32;;;;;;;51.38;27.95;;;;;;;;;;5035416;28;20053;-77
2022/12/01 07:35:58;;;;;;;49.10;27.77;;;;;;;;;;5056262;28;21022;-78
2022/12/01 07:38:24;;;;;;;53.20;26.80;;;;;;;;;;5074927;28;20071;-77
2022/12/01 07:40:50;;;;;;;49.75;26.92;;;;;;;;;;5059034;28;20040;-78
2022/12/01 07:43:16;;;;;;;44.45;24.30;;;;;;;;;;5073825;28;20166;-78
2022/12/01 07:45:42;;;;;;;45.40;24.85;;;;;;;;;;5040234;28;20480;-78
2022/12/01 07:48:09;;;;;;;46.85;25.70;;;;;;;;;;5040511;28;20531;-78
2022/12/01 07:50:35;;;;;;;50.90;26.02;;;;;;;;;;5032838;28;20052;-78
2022/12/01 07:53:01;;;;;;;50.42;26.45;;;;;;;;;;5041957;28;20210;-77
2022/12/01 07:55:27;;;;;;;49.53;28.38;;;;;;;;;;5036674;28;20056;-77
2022/12/01 07:57:53;;;;;;;50.25;25.55;;;;;;;;;;5036591;28;20052;-77
2022/12/01 08:00:19;;;;;;;50.53;26.30;;;;;;;;;;5038420;28;20401;-78
2022/12/01 08:02:47;;;;;;;49.08;26.65;;;;;;;;;;5051264;28;20059;-78
2022/12/01 08:05:13;;;;;;;50.03;26.88;;;;;;;;;;5057009;28;20667;-77
2022/12/01 08:07:39;;;;;;;53.88;27.17;;;;;;;;;;5036252;28;20176;-78
2022/12/01 08:10:06;;;;;;;58.47;28.02;;;;;;;;;;5038027;28;20056;-77
2022/12/01 08:12:32;;;;;;;52.20;27.02;;;;;;;;;;5055435;28;20119;-78
2022/12/01 08:14:58;;;;;;;50.65;27.88;;;;;;;;;;5037009;28;20427;-78
2022/12/01 08:17:24;;;;;;;56.97;27.73;;;;;;;;;;5054216;28;21075;-77
2022/12/01 08:19:50;;;;;;;60.13;28.67;;;;;;;;;;5054213;28;20547;-77
2022/12/01 08:22:16;;;;;;;61.90;29.30;;;;;;;;;;5015213;28;20523;-77
2022/12/01 08:24:42;;;;;;;53.67;27.85;;;;;;;;;;5036782;28;20048;-77
2022/12/01 08:27:08;;;;;;;56.83;29.20;;;;;;;;;;5041133;28;20062;-78
2022/12/01 08:29:35;;;;;;;55.38;27.33;;;;;;;;;;5054083;28;20224;-78
2022/12/01 08:32:01;;;;;;;58.22;29.02;;;;;;;;;;5021683;28;20067;-78
2022/12/01 08:34:27;;;;;;;59.60;27.98;;;;;;;;;;5038184;28;20445;-77
2022/12/01 08:36:53;;;;;;;53.45;28.90;;;;;;;;;;5036426;28;20051;-77
2022/12/01 08:39:20;;;;;;;56.00;28.98;;;;;;;;;;5055066;28;20691;-78
2022/12/01 08:41:46;;;;;;;65.15;30.15;;;;;;;;;;5024311;28;20091;-78
2022/12/01 08:44:12;;;;;;;65.78;32.65;;;;;;;;;;5061282;28;20108;-77
2022/12/01 08:46:38;;;;;;;69.78;32.67;;;;;;;;;;5067982;28;20055;-78
2022/12/01 08:49:05;;;;;;;70.85;34.67;;;;;;;;;;5057136;28;20071;-77
2022/12/01 08:51:31;;;;;;;68.47;34.08;;;;;;;;;;5056699;28;20279;-77
2022/12/01 08:53:58;;;;;;;65.25;33.42;;;;;;;;;;5056550;28;20044;-77
2022/12/01 08:56:26;;;;;;;70.60;34.25;;;;;;;;;;5038918;28;20048;-82
2022/12/01 08:58:53;;;;;;;69.20;32.42;;;;;;;;;;5080345;28;20179;-77
2022/12/01 09:01:19;;;;;;;78.55;37.60;;;;;;;;;;5058721;28;20048;-76
2022/12/01 09:03:46;;;;;;;76.88;38.97;;;;;;;;;;5057049;28;20048;-76
2022/12/01 09:06:18;;;;;;;85.78;39.65;;;;;;;;;;5075618;28;20044;-76
2022/12/01 09:08:44;;;;;;;79.80;37.33;;;;;;;;;;5054220;28;20052;-76
2022/12/01 09:11:12;;;;;;;86.50;39.80;;;;;;;;;;5051168;28;20044;-75
2022/12/01 09:13:39;;;;;;;86.85;39.90;;;;;;;;;;5056731;28;20052;-75
2022/12/01 09:16:06;;;;;;;80.30;37.95;;;;;;;;;;5058952;28;20165;-74
2022/12/01 09:18:32;;;;;;;81.88;37.55;;;;;;;;;;5061152;28;20166;-75
2022/12/01 09:20:59;;;;;;;82.05;36.67;;;;;;;;;;5068784;28;20047;-74
2022/12/01 09:23:25;;;;;;;87.55;37.60;;;;;;;;;;5070353;28;20388;-74
2022/12/01 09:25:51;;;;;;;83.55;38.65;;;;;;;;;;5068241;28;20109;-75
2022/12/01 09:28:18;;;;;;;85.10;38.58;;;;;;;;;;5049280;28;20043;-75
2022/12/01 09:30:44;;;;;;;91.60;40.88;;;;;;;;;;5051608;28;20088;-75
2022/12/01 09:33:11;;;;;;;81.40;37.10;;;;;;;;;;5050399;28;20055;-74
2022/12/01 09:35:37;;;;;;;78.82;37.75;;;;;;;;;;5069717;28;20043;-75
2022/12/01 09:38:03;;;;;;;81.78;37.22;;;;;;;;;;5071421;28;20183;-75
2022/12/01 09:40:41;;;;;;;80.53;37.72;;;;;;;;;;5052352;28;20101;-76
2022/12/01 09:43:19;;;;;;;76.15;37.45;;;;;;;;;;5071095;28;20129;-75
2022/12/01 09:45:47;;;;;;;80.95;38.95;;;;;;;;;;5041976;28;20141;-75
2022/12/01 09:48:22;;;;;;;87.60;39.85;;;;;;;;;;5054768;28;20055;-75
2022/12/01 09:50:48;;;;;;;84.45;38.65;;;;;;;;;;5052874;28;20074;-75
2022/12/01 09:53:17;;;;;;;75.82;37.30;;;;;;;;;;5055499;28;20080;-74
2022/12/01 09:55:43;;;;;;;72.93;37.05;;;;;;;;;;5052021;28;20058;-74
2022/12/01 09:58:14;;;;;;;72.68;35.42;;;;;;;;;;5069549;28;20048;-75
2022/12/01 10:00:42;;;;;;;74.50;34.92;;;;;;;;;;5054080;28;20087;-75
2022/12/01 10:03:08;;;;;;;86.10;37.10;;;;;;;;;;5068878;28;20448;-75
2022/12/01 10:05:46;;;;;;;78.35;36.08;;;;;;;;;;5034814;28;20173;-76
2022/12/01 10:08:14;;;;;;;74.45;37.38;;;;;;;;;;5036858;28;20069;-75
2022/12/01 10:10:42;;;;;;;73.60;37.05;;;;;;;;;;5068967;28;20117;-75
2022/12/01 10:13:18;;;;;;;77.50;37.33;;;;;;;;;;5050193;28;20051;-74
2022/12/01 10:15:53;;;;;;;78.90;37.85;;;;;;;;;;5050175;28;20871;-75
2022/12/01 10:18:19;;;;;;;70.55;35.72;;;;;;;;;;5050685;28;20385;-75
2022/12/01 10:20:51;;;;;;;77.55;37.42;;;;;;;;;;5029403;28;20056;-74
2022/12/01 10:23:29;;;;;;;69.00;34.72;;;;;;;;;;5054101;28;20079;-75
2022/12/01 10:25:57;;;;;;;73.45;35.20;;;;;;;;;;5049439;28;21913;-74
2022/12/01 10:28:45;;;;;;;72.88;35.83;;;;;;;;;;5050769;28;20155;-74
2022/12/01 10:31:19;;;;;;;68.47;34.42;;;;;;;;;;5068826;28;20054;-76
2022/12/01 10:33:56;;;;;;;70.72;34.92;;;;;;;;;;5052289;28;20232;-75
2022/12/01 10:36:22;;;;;;;69.13;35.20;;;;;;;;;;5051597;28;20055;-75
2022/12/01 10:38:48;;;;;;;69.88;35.55;;;;;;;;;;5069366;28;20052;-75
2022/12/01 10:41:16;;;;;;;69.22;33.97;;;;;;;;;;5050275;28;20560;-75
2022/12/01 10:43:44;;;;;;;72.03;35.67;;;;;;;;;;5051104;28;20044;-74
2022/12/01 10:46:20;;;;;;;70.80;35.60;;;;;;;;;;5051689;28;20114;-74
2022/12/01 10:48:55;;;;;;;70.65;34.22;;;;;;;;;;5049841;28;20052;-75
2022/12/01 10:51:22;;;;;;;70.15;34.55;;;;;;;;;;5046543;28;20059;-75
2022/12/01 10:53:48;;;;;;;72.90;34.58;;;;;;;;;;5050903;28;20044;-75
2022/12/01 10:56:19;;;;;;;69.45;34.25;;;;;;;;;;5049310;28;20182;-75
2022/12/01 10:58:52;;;;;;;72.97;35.67;;;;;;;;;;5051449;28;20059;-75
2022/12/01 11:01:26;;;;;;;70.38;35.00;;;;;;;;;;5050476;28;20082;-75
2022/12/01 11:03:57;;;;;;;70.45;33.92;;;;;;;;;;5050759;28;20044;-75
2022/12/01 11:06:27;;;;;;;62.10;32.53;;;;;;;;;;5043947;28;20059;-75
2022/12/01 11:08:56;;;;;;;67.63;34.72;;;;;;;;;;5067839;28;20087;-74
2022/12/01 11:11:33;;;;;;;70.85;36.03;;;;;;;;;;5068902;28;20068;-75
2022/12/01 11:14:05;;;;;;;67.18;34.00;;;;;;;;;;5051179;28;20044;-75
2022/12/01 11:16:51;;;;;;;66.18;35.45;;;;;;;;;;5048508;28;20084;-74
2022/12/01 11:19:18;;;;;;;69.75;35.17;;;;;;;;;;5043707;28;20080;-76
2022/12/01 11:21:49;;;;;;;69.55;36.30;;;;;;;;;;5038056;28;20039;-75
2022/12/01 11:24:27;;;;;;;64.35;34.20;;;;;;;;;;5051414;28;20577;-75
2022/12/01 11:26:54;;;;;;;60.42;33.28;;;;;;;;;;5049675;28;20127;-75
2022/12/01 11:29:25;;;;;;;63.13;33.28;;;;;;;;;;5049056;28;20471;-75
2022/12/01 11:31:51;;;;;;;66.28;33.53;;;;;;;;;;5045225;28;20064;-75
2022/12/01 11:34:18;;;;;;;61.42;32.95;;;;;;;;;;5058586;28;20106;-75
2022/12/01 11:36:45;;;;;;;59.17;31.17;;;;;;;;;;5061532;28;20050;-75
2022/12/01 11:39:31;;;;;;;54.60;31.50;;;;;;;;;;5050489;28;20044;-75
2022/12/01 11:42:05;;;;;;;54.92;30.48;;;;;;;;;;5049327;28;20057;-75
2022/12/01 11:44:31;;;;;;;;;;;;;;;;;;5051197;28;20048;-75
2022/12/01 11:47:10;;;;;;;55.40;29.50;;;;;;;;;;5060701;28;19923;-75
2022/12/01 11:49:39;;;;;;;52.95;29.10;;;;;;;;;;5035452;28;20082;-75
2022/12/01 11:52:22;;;;;;;55.75;30.90;;;;;;;;;;5034962;28;20052;-75
2022/12/01 11:55:07;;;;;;;53.72;29.38;;;;;;;;;;5069539;28;20086;-75
2022/12/01 11:57:33;;;;;;;54.55;31.63;;;;;;;;;;5058932;28;20044;-75
2022/12/01 11:59:59;;;;;;;53.17;29.92;;;;;;;;;;5060056;28;20049;-75
2022/12/01 12:02:28;;;;;;;57.15;31.75;;;;;;;;;;5061057;28;20040;-75
2022/12/01 12:05:04;;;;;;;54.08;30.20;;;;;;;;;;5081633;28;20098;-75
2022/12/01 12:07:33;;;;;;;56.92;30.67;;;;;;;;;;5084702;28;20041;-75
2022/12/01 12:10:06;;;;;;;56.28;31.38;;;;;;;;;;5085233;28;20047;-75
2022/12/01 12:12:50;;;;;;;57.33;31.52;;;;;;;;;;5086166;28;20046;-75
2022/12/01 12:15:36;;;;;;;54.92;31.42;;;;;;;;;;5066431;28;20044;-75
2022/12/01 12:18:25;;;;;;;55.33;31.60;;;;;;;;;;5066944;28;20202;-75
2022/12/01 12:21:08;;;;;;;59.13;32.70;;;;;;;;;;5016176;28;20052;-75
2022/12/01 12:23:53;;;;;;;61.20;33.08;;;;;;;;;;5069105;28;20591;-75
2022/12/01 12:26:24;;;;;;;59.75;33.33;;;;;;;;;;5071167;28;20045;-75
2022/12/01 12:28:50;;;;;;;62.85;33.80;;;;;;;;;;5053105;28;20052;-75
2022/12/01 12:31:22;;;;;;;58.85;33.78;;;;;;;;;;5052893;28;20086;-75
2022/12/01 12:33:48;;;;;;;60.17;32.85;;;;;;;;;;5052620;28;20127;-75
2022/12/01 12:36:27;;;;;;;59.33;34.25;;;;;;;;;;5054465;28;20088;-75
2022/12/01 12:38:53;;;;;;;59.90;32.72;;;;;;;;;;5052738;28;20125;-75
2022/12/01 12:41:28;;;;;;;65.95;34.55;;;;;;;;;;5053381;28;20626;-75
2022/12/01 12:44:13;;;;;;;58.33;31.95;;;;;;;;;;5054181;28;20056;-75
2022/12/01 12:47:15;;;;;;;60.92;34.05;;;;;;;;;;5053442;28;20060;-75
2022/12/01 12:49:43;;;;;;;59.40;33.33;;;;;;;;;;4976634;28;20769;-75
2022/12/01 12:52:24;;;;;;;57.03;34.50;;;;;;;;;;5038568;28;20049;-75
2022/12/01 12:54:52;;;;;;;62.10;35.28;;;;;;;;;;5067750;28;20063;-75
2022/12/01 12:57:30;;;;;;;67.93;36.67;;;;;;;;;;5040689;28;20044;-75
2022/12/01 13:00:04;;;;;;;66.03;37.58;;;;;;;;;;5071813;28;20888;-75
2022/12/01 13:02:42;;;;;;;63.70;35.80;;;;;;;;;;5071588;28;21349;-75
2022/12/01 13:05:09;;;;;;;61.03;34.15;;;;;;;;;;5052668;28;20075;-74
2022/12/01 13:07:38;;;;;;;66.85;36.53;;;;;;;;;;5036695;28;20048;-75
2022/12/01 13:10:11;;;;;;;73.50;37.15;;;;;;;;;;5072312;28;20056;-75
2022/12/01 13:12:40;;;;;;;65.60;37.45;;;;;;;;;;5051513;28;20098;-75
2022/12/01 13:15:14;;;;;;;64.15;37.08;;;;;;;;;;5069142;28;20036;-74
2022/12/01 13:17:40;;;;;;;;;;;;;;;;;;5051312;28;20058;-75
2022/12/01 13:20:06;;;;;;;71.30;37.83;;;;;;;;;;5064727;28;20433;-75
2022/12/01 13:22:34;;;;;;;69.13;36.67;;;;;;;;;;5052705;28;21538;-75
2022/12/01 13:25:00;;;;;;;69.55;39.63;;;;;;;;;;5072135;28;20151;-76
2022/12/01 13:27:30;;;;;;;75.00;41.88;;;;;;;;;;5048609;28;20167;-76
2022/12/01 13:29:57;;;;;;;74.43;39.92;;;;;;;;;;5050478;28;20052;-76
2022/12/01 13:32:36;;;;;;;76.57;42.28;;;;;;;;;;5033822;28;20118;-75
2022/12/01 13:35:05;;;;;;;80.75;43.33;;;;;;;;;;5069253;28;20101;-76
2022/12/01 13:37:32;;;;;;;83.05;44.13;;;;;;;;;;5070848;28;20063;-76
2022/12/01 13:40:17;;;;;;;85.68;44.97;;;;;;;;;;5052002;28;20086;-75
2022/12/01 13:42:50;;;;;;;84.65;45.03;;;;;;;;;;5051138;28;20052;-75
2022/12/01 13:45:18;;;;;;;86.60;46.55;;;;;;;;;;5053749;28;21737;-75
2022/12/01 13:47:47;;;;;;;78.60;42.63;;;;;;;;;;5069572;28;20075;-75
2022/12/01 13:50:32;;;;;;;84.68;45.55;;;;;;;;;;5069996;28;20044;-75
2022/12/01 13:53:17;;;;;;;83.25;43.05;;;;;;;;;;5069042;28;20044;-75
2022/12/01 13:55:55;;;;;;;82.65;44.80;;;;;;;;;;5048753;28;20040;-75
2022/12/01 13:58:23;;;;;;;93.43;46.75;;;;;;;;;;5051960;28;20059;-75
2022/12/01 14:00:49;;;;;;;93.18;48.08;;;;;;;;;;5049990;28;20049;-75
2022/12/01 14:03:15;;;;;;;92.18;47.17;;;;;;;;;;5070491;28;20161;-74
2022/12/01 14:05:41;;;;;;;94.78;49.65;;;;;;;;;;5071211;28;20040;-74
2022/12/01 14:08:21;;;;;;;93.47;48.17;;;;;;;;;;5071937;28;20064;-76
2022/12/01 14:11:03;;;;;;;90.50;48.13;;;;;;;;;;5055867;28;20965;-74
2022/12/01 14:13:30;;;;;;;91.45;48.25;;;;;;;;;;5071894;28;20480;-74
2022/12/01 14:16:00;;;;;;;87.25;46.08;;;;;;;;;;5034188;28;20082;-75
2022/12/01 14:18:37;;;;;;;89.32;47.08;;;;;;;;;;5055161;28;20048;-75
2022/12/01 14:21:05;;;;;;;92.50;48.60;;;;;;;;;;5070828;28;20057;-75
2022/12/01 14:23:32;;;;;;;83.70;45.40;;;;;;;;;;5069073;28;20059;-75
2022/12/01 14:26:04;;;;;;;82.93;45.45;;;;;;;;;;5053815;28;20049;-74
2022/12/01 14:28:49;;;;;;;85.80;46.35;;;;;;;;;;5053638;28;20764;-75